sensor_id;sensor_type;location;lat;lon;timestamp;pressure;altitude;pressure_sealevel;temperature;humidity
69198;BME280;56311;50.298;8.514;2022-10-16T00:02:10;97479.38;;;12.55;100.00
69198;BME280;56311;50.298;8.514;2022-10-16T00:04:37;97491.34;;;12.54;100.00
69198;BME280;56311;50.298;8.514;2022-10-16T00:07:04;97489.63;;;12.58;100.00
69198;BME280;56311;50.298;8.514;2022-10-16T00:09:31;97487.72;;;12.58;100.00
69198;BME280;56311;50.298;8.514;2022-10-16T00:11:59;97492.03;;;12.60;100.00
69198;BME280;56311;50.298;8.514;2022-10-16T00:14:25;97483.19;;;12.54;100.00
69198;BME280;56311;50.298;8.514;2022-10-16T00:16:52;97478.41;;;12.51;100.00
69198;BME280;56311;50.298;8.514;2022-10-16T00:19:19;97484.44;;;12.48;100.00
69198;BME280;56311;50.298;8.514;2022-10-16T00:21:46;97479.44;;;12.41;100.00
69198;BME280;56311;50.298;8.514;2022-10-16T00:24:12;97479.13;;;12.42;100.00
69198;BME280;56311;50.298;8.514;2022-10-16T00:26:39;97480.88;;;12.38;100.00
69198;BME280;56311;50.298;8.514;2022-10-16T00:29:08;97485.34;;;12.43;100.00
69198;BME280;56311;50.298;8.514;2022-10-16T00:31:35;97488.25;;;12.47;100.00
69198;BME280;56311;50.298;8.514;2022-10-16T00:34:02;97480.88;;;12.38;100.00
69198;BME280;56311;50.298;8.514;2022-10-16T00:36:29;97489.09;;;12.33;100.00
69198;BME280;56311;50.298;8.514;2022-10-16T00:39:14;97483.97;;;12.32;100.00
69198;BME280;56311;50.298;8.514;2022-10-16T00:41:41;97475.53;;;12.33;100.00
69198;BME280;56311;50.298;8.514;2022-10-16T00:44:43;97483.78;;;12.28;100.00
69198;BME280;56311;50.298;8.514;2022-10-16T00:47:13;97486.31;;;12.24;100.00
69198;BME280;56311;50.298;8.514;2022-10-16T00:49:41;97486.13;;;12.21;100.00
69198;BME280;56311;50.298;8.514;2022-10-16T00:52:09;97484.03;;;12.18;100.00
69198;BME280;56311;50.298;8.514;2022-10-16T00:54:37;97481.13;;;12.14;100.00
69198;BME280;56311;50.298;8.514;2022-10-16T00:57:06;97492.16;;;12.18;100.00
69198;BME280;56311;50.298;8.514;2022-10-16T00:59:36;97494.88;;;12.18;100.00
69198;BME280;56311;50.298;8.514;2022-10-16T01:02:07;97487.34;;;12.15;100.00
69198;BME280;56311;50.298;8.514;2022-10-16T01:04:37;97494.06;;;12.17;100.00
69198;BME280;56311;50.298;8.514;2022-10-16T01:07:11;97497.28;;;12.19;100.00
69198;BME280;56311;50.298;8.514;2022-10-16T01:09:47;97507.31;;;12.19;100.00
69198;BME280;56311;50.298;8.514;2022-10-16T01:12:24;97507.31;;;12.19;100.00
69198;BME280;56311;50.298;8.514;2022-10-16T01:14:58;97506.22;;;12.20;100.00
69198;BME280;56311;50.298;8.514;2022-10-16T01:17:34;97512.13;;;12.22;100.00
69198;BME280;56311;50.298;8.514;2022-10-16T01:20:08;97516.34;;;12.28;100.00
69198;BME280;56311;50.298;8.514;2022-10-16T01:22:47;97514.13;;;12.30;100.00
69198;BME280;56311;50.298;8.514;2022-10-16T01:25:19;97519.44;;;12.35;100.00
69198;BME280;56311;50.298;8.514;2022-10-16T01:27:48;97506.66;;;12.36;100.00
69198;BME280;56311;50.298;8.514;2022-10-16T01:30:18;97500.13;;;12.37;100.00
69198;BME280;56311;50.298;8.514;2022-10-16T01:32:50;97497.00;;;12.44;100.00
69198;BME280;56311;50.298;8.514;2022-10-16T01:35:23;97508.06;;;12.47;100.00
69198;BME280;56311;50.298;8.514;2022-10-16T01:37:54;97509.34;;;12.50;100.00
69198;BME280;56311;50.298;8.514;2022-10-16T01:40:26;97512.84;;;12.50;100.00
69198;BME280;56311;50.298;8.514;2022-10-16T01:42:57;97520.22;;;12.50;100.00
69198;BME280;56311;50.298;8.514;2022-10-16T01:45:26;97514.19;;;12.53;100.00
69198;BME280;56311;50.298;8.514;2022-10-16T01:47:55;97515.34;;;12.61;100.00
69198;BME280;56311;50.298;8.514;2022-10-16T01:50:23;97503.59;;;12.65;100.00
69198;BME280;56311;50.298;8.514;2022-10-16T01:52:52;97495.84;;;12.58;100.00
69198;BME280;56311;50.298;8.514;2022-10-16T01:55:25;97498.28;;;12.60;100.00
69198;BME280;56311;50.298;8.514;2022-10-16T01:57:56;97502.47;;;12.66;100.00
69198;BME280;56311;50.298;8.514;2022-10-16T02:00:26;97504.56;;;12.69;100.00
69198;BME280;56311;50.298;8.514;2022-10-16T02:02:54;97513.00;;;12.68;100.00
69198;BME280;56311;50.298;8.514;2022-10-16T02:05:26;97512.09;;;12.72;100.00
69198;BME280;56311;50.298;8.514;2022-10-16T02:07:55;97525.97;;;12.71;100.00
69198;BME280;56311;50.298;8.514;2022-10-16T02:10:26;97521.84;;;12.73;100.00
69198;BME280;56311;50.298;8.514;2022-10-16T02:13:03;97537.22;;;12.78;100.00
69198;BME280;56311;50.298;8.514;2022-10-16T02:15:32;97539.75;;;12.74;100.00
69198;BME280;56311;50.298;8.514;2022-10-16T02:17:59;97532.06;;;12.77;100.00
69198;BME280;56311;50.298;8.514;2022-10-16T02:20:28;97519.13;;;12.73;100.00
69198;BME280;56311;50.298;8.514;2022-10-16T02:22:58;97522.03;;;12.77;100.00
69198;BME280;56311;50.298;8.514;2022-10-16T02:25:28;97532.75;;;12.82;100.00
69198;BME280;56311;50.298;8.514;2022-10-16T02:28:00;97529.06;;;12.78;100.00
69198;BME280;56311;50.298;8.514;2022-10-16T02:30:32;97528.25;;;12.78;100.00
69198;BME280;56311;50.298;8.514;2022-10-16T02:33:01;97518.41;;;12.82;100.00
69198;BME280;56311;50.298;8.514;2022-10-16T02:35:30;97525.91;;;12.85;100.00
69198;BME280;56311;50.298;8.514;2022-10-16T02:37:58;97526.22;;;12.83;100.00
69198;BME280;56311;50.298;8.514;2022-10-16T02:40:26;97524.03;;;12.85;100.00
69198;BME280;56311;50.298;8.514;2022-10-16T02:42:54;97522.28;;;12.89;100.00
69198;BME280;56311;50.298;8.514;2022-10-16T02:45:23;97515.25;;;12.88;100.00
69198;BME280;56311;50.298;8.514;2022-10-16T02:47:51;97532.44;;;12.84;100.00
69198;BME280;56311;50.298;8.514;2022-10-16T02:50:17;97540.13;;;12.82;100.00
69198;BME280;56311;50.298;8.514;2022-10-16T02:52:44;97548.38;;;12.77;100.00
69198;BME280;56311;50.298;8.514;2022-10-16T02:55:11;97539.94;;;12.78;100.00
69198;BME280;56311;50.298;8.514;2022-10-16T02:57:38;97545.84;;;12.80;100.00
69198;BME280;56311;50.298;8.514;2022-10-16T03:00:08;97534.00;;;12.76;100.00
69198;BME280;56311;50.298;8.514;2022-10-16T03:02:36;97537.81;;;12.75;100.00
69198;BME280;56311;50.298;8.514;2022-10-16T03:05:04;97553.00;;;12.76;100.00
69198;BME280;56311;50.298;8.514;2022-10-16T03:07:31;97573.41;;;12.73;100.00
69198;BME280;56311;50.298;8.514;2022-10-16T03:09:57;97577.56;;;12.71;100.00
69198;BME280;56311;50.298;8.514;2022-10-16T03:12:26;97584.88;;;12.70;100.00
69198;BME280;56311;50.298;8.514;2022-10-16T03:14:53;97581.28;;;12.61;100.00
69198;BME280;56311;50.298;8.514;2022-10-16T03:17:20;97566.13;;;12.60;100.00
69198;BME280;56311;50.298;8.514;2022-10-16T03:19:48;97574.47;;;12.50;100.00
69198;BME280;56311;50.298;8.514;2022-10-16T03:22:15;97572.97;;;12.44;100.00
69198;BME280;56311;50.298;8.514;2022-10-16T03:24:41;97565.44;;;12.40;100.00
69198;BME280;56311;50.298;8.514;2022-10-16T03:27:08;97575.91;;;12.33;100.00
69198;BME280;56311;50.298;8.514;2022-10-16T03:29:35;97579.91;;;12.36;100.00
69198;BME280;56311;50.298;8.514;2022-10-16T03:32:02;97567.47;;;12.35;100.00
69198;BME280;56311;50.298;8.514;2022-10-16T03:34:28;97559.16;;;12.31;100.00
69198;BME280;56311;50.298;8.514;2022-10-16T03:36:57;97568.97;;;12.27;100.00
69198;BME280;56311;50.298;8.514;2022-10-16T03:39:23;97565.59;;;12.21;100.00
69198;BME280;56311;50.298;8.514;2022-10-16T03:41:50;97564.38;;;12.14;100.00
69198;BME280;56311;50.298;8.514;2022-10-16T03:44:17;97565.97;;;12.15;100.00
69198;BME280;56311;50.298;8.514;2022-10-16T03:46:44;97563.06;;;12.11;100.00
69198;BME280;56311;50.298;8.514;2022-10-16T03:49:10;97559.06;;;12.08;100.00
69198;BME280;56311;50.298;8.514;2022-10-16T03:51:37;97564.28;;;12.05;100.00
69198;BME280;56311;50.298;8.514;2022-10-16T03:54:05;97573.63;;;11.99;100.00
69198;BME280;56311;50.298;8.514;2022-10-16T03:56:32;97570.69;;;11.95;100.00
69198;BME280;56311;50.298;8.514;2022-10-16T03:58:59;97573.41;;;11.95;100.00
69198;BME280;56311;50.298;8.514;2022-10-16T04:01:26;97582.31;;;11.95;100.00
69198;BME280;56311;50.298;8.514;2022-10-16T04:03:52;97574.81;;;11.92;100.00
69198;BME280;56311;50.298;8.514;2022-10-16T04:06:19;97573.69;;;11.93;100.00
69198;BME280;56311;50.298;8.514;2022-10-16T04:08:46;97569.66;;;11.91;100.00
69198;BME280;56311;50.298;8.514;2022-10-16T04:11:14;97574.50;;;11.94;100.00
69198;BME280;56311;50.298;8.514;2022-10-16T04:13:40;97577.22;;;11.94;100.00
69198;BME280;56311;50.298;8.514;2022-10-16T04:16:08;97571.59;;;11.90;100.00
69198;BME280;56311;50.298;8.514;2022-10-16T04:18:34;97576.19;;;11.90;100.00
69198;BME280;56311;50.298;8.514;2022-10-16T04:21:03;97575.97;;;11.86;100.00
69198;BME280;56311;50.298;8.514;2022-10-16T04:23:30;97582.53;;;11.85;100.00
69198;BME280;56311;50.298;8.514;2022-10-16T04:25:57;97590.94;;;11.84;100.00
69198;BME280;56311;50.298;8.514;2022-10-16T04:28:25;97598.19;;;11.88;100.00
69198;BME280;56311;50.298;8.514;2022-10-16T04:30:52;97604.13;;;11.90;100.00
69198;BME280;56311;50.298;8.514;2022-10-16T04:33:19;97604.63;;;11.92;100.00
69198;BME280;56311;50.298;8.514;2022-10-16T04:35:46;97604.63;;;11.92;100.00
69198;BME280;56311;50.298;8.514;2022-10-16T04:38:12;97602.50;;;11.89;100.00
69198;BME280;56311;50.298;8.514;2022-10-16T04:40:41;97601.19;;;11.87;100.00
69198;BME280;56311;50.298;8.514;2022-10-16T04:43:08;97602.50;;;11.89;100.00
69198;BME280;56311;50.298;8.514;2022-10-16T04:45:36;97603.00;;;11.91;100.00
69198;BME280;56311;50.298;8.514;2022-10-16T04:48:03;97607.63;;;11.91;100.00
69198;BME280;56311;50.298;8.514;2022-10-16T04:50:30;97601.72;;;11.89;100.00
69198;BME280;56311;50.298;8.514;2022-10-16T04:52:57;97592.44;;;11.90;100.00
69198;BME280;56311;50.298;8.514;2022-10-16T04:55:23;97607.13;;;11.89;100.00
69198;BME280;56311;50.298;8.514;2022-10-16T04:57:50;97598.78;;;11.85;100.00
69198;BME280;56311;50.298;8.514;2022-10-16T05:00:17;97593.38;;;11.85;100.00
69198;BME280;56311;50.298;8.514;2022-10-16T05:02:45;97604.50;;;11.84;100.00
69198;BME280;56311;50.298;8.514;2022-10-16T05:05:12;97606.41;;;11.83;100.00
69198;BME280;56311;50.298;8.514;2022-10-16T05:07:39;97614.25;;;11.85;100.00
69198;BME280;56311;50.298;8.514;2022-10-16T05:10:06;97606.41;;;11.83;100.00
69198;BME280;56311;50.298;8.514;2022-10-16T05:12:33;97601.72;;;11.89;100.00
69198;BME280;56311;50.298;8.514;2022-10-16T05:14:59;97600.00;;;11.93;100.00
69198;BME280;56311;50.298;8.514;2022-10-16T05:17:26;97607.81;;;11.94;100.00
69198;BME280;56311;50.298;8.514;2022-10-16T05:19:55;97605.09;;;11.94;100.00
69198;BME280;56311;50.298;8.514;2022-10-16T05:22:22;97609.16;;;11.97;100.00
69198;BME280;56311;50.298;8.514;2022-10-16T05:24:49;97600.22;;;11.97;100.00
69198;BME280;56311;50.298;8.514;2022-10-16T05:27:15;97596.19;;;11.94;100.00
69198;BME280;56311;50.298;8.514;2022-10-16T05:29:46;97591.00;;;11.98;100.00
69198;BME280;56311;50.298;8.514;2022-10-16T05:32:13;97595.34;;;11.93;100.00
69198;BME280;56311;50.298;8.514;2022-10-16T05:34:40;97610.31;;;11.91;100.00
69198;BME280;56311;50.298;8.514;2022-10-16T05:37:08;97600.78;;;11.93;100.00
69198;BME280;56311;50.298;8.514;2022-10-16T05:39:35;97611.06;;;11.97;100.00
69198;BME280;56311;50.298;8.514;2022-10-16T05:42:03;97607.47;;;12.01;100.00
69198;BME280;56311;50.298;8.514;2022-10-16T05:44:30;97596.31;;;12.17;100.00
69198;BME280;56311;50.298;8.514;2022-10-16T05:46:57;97604.03;;;12.23;100.00
69198;BME280;56311;50.298;8.514;2022-10-16T05:49:24;97602.81;;;12.30;100.00
69198;BME280;56311;50.298;8.514;2022-10-16T05:51:50;97613.09;;;12.33;100.00
69198;BME280;56311;50.298;8.514;2022-10-16T05:54:18;97612.97;;;12.38;100.00
69198;BME280;56311;50.298;8.514;2022-10-16T05:56:45;97607.16;;;12.45;100.00
69198;BME280;56311;50.298;8.514;2022-10-16T05:59:12;97610.16;;;12.43;100.00
69198;BME280;56311;50.298;8.514;2022-10-16T06:01:39;97619.41;;;12.42;100.00
69198;BME280;56311;50.298;8.514;2022-10-16T06:04:05;97634.56;;;12.43;100.00
69198;BME280;56311;50.298;8.514;2022-10-16T06:06:32;97635.88;;;12.46;100.00
69198;BME280;56311;50.298;8.514;2022-10-16T06:08:59;97624.53;;;12.44;100.00
69198;BME280;56311;50.298;8.514;2022-10-16T06:11:29;97635.88;;;12.46;100.00
69198;BME280;56311;50.298;8.514;2022-10-16T06:13:58;97632.56;;;12.49;100.00
69198;BME280;56311;50.298;8.514;2022-10-16T06:16:26;97631.44;;;12.50;100.00
69198;BME280;56311;50.298;8.514;2022-10-16T06:18:54;97633.47;;;12.58;100.00
69198;BME280;56311;50.298;8.514;2022-10-16T06:21:23;97635.34;;;12.57;100.00
69198;BME280;56311;50.298;8.514;2022-10-16T06:23:54;97648.63;;;12.59;100.00
69198;BME280;56311;50.298;8.514;2022-10-16T06:26:24;97648.00;;;12.62;100.00
69198;BME280;56311;50.298;8.514;2022-10-16T06:28:54;97644.09;;;12.68;100.00
69198;BME280;56311;50.298;8.514;2022-10-16T06:31:22;97648.59;;;12.73;100.00
69198;BME280;56311;50.298;8.514;2022-10-16T06:33:54;97651.50;;;12.77;100.00
69198;BME280;56311;50.298;8.514;2022-10-16T06:36:21;97660.94;;;12.79;100.00
69198;BME280;56311;50.298;8.514;2022-10-16T06:38:47;97657.03;;;12.85;100.00
69198;BME280;56311;50.298;8.514;2022-10-16T06:41:16;97654.78;;;13.01;100.00
69198;BME280;56311;50.298;8.514;2022-10-16T06:43:43;97652.97;;;13.11;100.00
69198;BME280;56311;50.298;8.514;2022-10-16T06:46:16;97654.53;;;13.12;100.00
69198;BME280;56311;50.298;8.514;2022-10-16T06:48:43;97655.69;;;13.11;100.00
69198;BME280;56311;50.298;8.514;2022-10-16T06:51:11;97658.19;;;13.07;100.00
69198;BME280;56311;50.298;8.514;2022-10-16T06:53:40;97662.50;;;13.08;100.00
69198;BME280;56311;50.298;8.514;2022-10-16T06:56:29;97660.59;;;13.09;100.00
69198;BME280;56311;50.298;8.514;2022-10-16T06:58:58;97668.44;;;13.10;100.00
69198;BME280;56311;50.298;8.514;2022-10-16T07:01:26;97684.13;;;13.13;100.00
69198;BME280;56311;50.298;8.514;2022-10-16T07:03:53;97683.81;;;13.15;100.00
69198;BME280;56311;50.298;8.514;2022-10-16T07:06:21;97685.13;;;13.17;100.00
69198;BME280;56311;50.298;8.514;2022-10-16T07:08:49;97690.22;;;13.19;100.00
69198;BME280;56311;50.298;8.514;2022-10-16T07:11:17;97696.16;;;13.21;100.00
69198;BME280;56311;50.298;8.514;2022-10-16T07:13:45;97698.75;;;13.26;100.00
69198;BME280;56311;50.298;8.514;2022-10-16T07:16:21;97709.34;;;13.28;100.00
69198;BME280;56311;50.298;8.514;2022-10-16T07:18:49;97712.25;;;13.31;100.00
69198;BME280;56311;50.298;8.514;2022-10-16T07:21:21;97713.53;;;13.34;100.00
69198;BME280;56311;50.298;8.514;2022-10-16T07:23:50;97723.13;;;13.31;100.00
69198;BME280;56311;50.298;8.514;2022-10-16T07:26:17;97727.53;;;13.27;100.00
69198;BME280;56311;50.298;8.514;2022-10-16T07:28:44;97722.94;;;13.28;100.00
69198;BME280;56311;50.298;8.514;2022-10-16T07:31:13;97735.88;;;13.31;100.00
69198;BME280;56311;50.298;8.514;2022-10-16T07:33:43;97733.16;;;13.31;100.00
69198;BME280;56311;50.298;8.514;2022-10-16T07:36:12;97744.84;;;13.31;100.00
69198;BME280;56311;50.298;8.514;2022-10-16T07:38:42;97753.28;;;13.30;100.00
69198;BME280;56311;50.298;8.514;2022-10-16T07:41:10;97757.94;;;13.29;100.00
69198;BME280;56311;50.298;8.514;2022-10-16T07:43:37;97764.97;;;13.30;100.00
69198;BME280;56311;50.298;8.514;2022-10-16T07:46:05;97767.19;;;13.28;100.00
69198;BME280;56311;50.298;8.514;2022-10-16T07:48:34;97778.25;;;13.46;100.00
69198;BME280;56311;50.298;8.514;2022-10-16T07:51:02;97778.03;;;13.56;100.00
69198;BME280;56311;50.298;8.514;2022-10-16T07:53:31;97775.19;;;13.61;100.00
69198;BME280;56311;50.298;8.514;2022-10-16T07:55:58;97777.78;;;13.66;100.00
69198;BME280;56311;50.298;8.514;2022-10-16T07:58:26;97786.44;;;13.68;100.00
69198;BME280;56311;50.298;8.514;2022-10-16T08:00:53;97786.13;;;13.70;100.00
69198;BME280;56311;50.298;8.514;2022-10-16T08:03:20;97791.56;;;13.70;100.00
69198;BME280;56311;50.298;8.514;2022-10-16T08:05:47;97797.22;;;13.74;100.00
69198;BME280;56311;50.298;8.514;2022-10-16T08:08:15;97796.56;;;13.77;100.00
69198;BME280;56311;50.298;8.514;2022-10-16T08:10:44;97790.53;;;13.80;100.00
69198;BME280;56311;50.298;8.514;2022-10-16T08:13:11;97797.47;;;13.86;100.00
69198;BME280;56311;50.298;8.514;2022-10-16T08:15:39;97803.28;;;13.93;100.00
69198;BME280;56311;50.298;8.514;2022-10-16T08:18:05;97810.19;;;13.99;100.00
69198;BME280;56311;50.298;8.514;2022-10-16T08:20:33;97806.38;;;14.00;100.00
69198;BME280;56311;50.298;8.514;2022-10-16T08:23:00;97824.34;;;14.10;100.00
69198;BME280;56311;50.298;8.514;2022-10-16T08:25:27;97822.59;;;14.14;100.00
69198;BME280;56311;50.298;8.514;2022-10-16T08:27:56;97825.31;;;14.14;100.00
69198;BME280;56311;50.298;8.514;2022-10-16T08:30:24;97814.25;;;14.11;100.00
69198;BME280;56311;50.298;8.514;2022-10-16T08:32:51;97828.38;;;14.13;100.00
69198;BME280;56311;50.298;8.514;2022-10-16T08:35:17;97833.31;;;14.11;100.00
69198;BME280;56311;50.298;8.514;2022-10-16T08:37:44;97838.38;;;14.26;100.00
69198;BME280;56311;50.298;8.514;2022-10-16T08:40:17;97839.28;;;14.44;100.00
69198;BME280;56311;50.298;8.514;2022-10-16T08:42:59;97858.72;;;14.52;100.00
69198;BME280;56311;50.298;8.514;2022-10-16T08:45:48;97861.81;;;14.59;100.00
69198;BME280;56311;50.298;8.514;2022-10-16T08:48:21;97865.63;;;14.58;100.00
69198;BME280;56311;50.298;8.514;2022-10-16T08:50:51;97866.41;;;14.49;100.00
69198;BME280;56311;50.298;8.514;2022-10-16T08:53:22;97865.91;;;14.47;100.00
69198;BME280;56311;50.298;8.514;2022-10-16T08:55:52;97862.38;;;14.47;100.00
69198;BME280;56311;50.298;8.514;2022-10-16T08:58:22;97869.38;;;14.39;100.00
69198;BME280;56311;50.298;8.514;2022-10-16T09:00:52;97867.56;;;14.35;100.00
69198;BME280;56311;50.298;8.514;2022-10-16T09:03:28;97863.41;;;14.37;100.00
69198;BME280;56311;50.298;8.514;2022-10-16T09:06:10;97853.91;;;14.71;100.00
69198;BME280;56311;50.298;8.514;2022-10-16T09:08:52;97865.59;;;15.03;100.00
69198;BME280;56311;50.298;8.514;2022-10-16T09:11:30;97876.97;;;15.05;100.00
69198;BME280;56311;50.298;8.514;2022-10-16T09:14:07;97879.22;;;15.12;100.00
69198;BME280;56311;50.298;8.514;2022-10-16T09:16:48;97877.75;;;15.06;100.00
69198;BME280;56311;50.298;8.514;2022-10-16T09:19:20;97885.94;;;15.06;100.00
69198;BME280;56311;50.298;8.514;2022-10-16T09:21:49;97885.03;;;15.19;100.00
69198;BME280;56311;50.298;8.514;2022-10-16T09:24:19;97896.28;;;15.26;100.00
69198;BME280;56311;50.298;8.514;2022-10-16T09:26:49;97897.84;;;15.10;100.00
69198;BME280;56311;50.298;8.514;2022-10-16T09:29:19;97898.94;;;15.09;100.00
69198;BME280;56311;50.298;8.514;2022-10-16T09:31:52;97901.72;;;15.26;100.00
69198;BME280;56311;50.298;8.514;2022-10-16T09:34:24;97898.88;;;15.32;100.00
69198;BME280;56311;50.298;8.514;2022-10-16T09:36:53;97900.75;;;15.22;100.00
69198;BME280;56311;50.298;8.514;2022-10-16T09:39:21;97909.91;;;15.26;100.00
69198;BME280;56311;50.298;8.514;2022-10-16T09:41:48;97909.72;;;15.23;100.00
69198;BME280;56311;50.298;8.514;2022-10-16T09:44:23;97910.66;;;15.18;100.00
69198;BME280;56311;50.298;8.514;2022-10-16T09:47:01;97911.31;;;15.15;100.00
69198;BME280;56311;50.298;8.514;2022-10-16T09:49:28;97921.50;;;15.01;100.00
69198;BME280;56311;50.298;8.514;2022-10-16T09:52:03;97926.41;;;14.90;100.00
69198;BME280;56311;50.298;8.514;2022-10-16T09:54:30;97925.13;;;14.87;100.00
69198;BME280;56311;50.298;8.514;2022-10-16T09:57:04;97929.00;;;14.95;100.00
69198;BME280;56311;50.298;8.514;2022-10-16T09:59:33;97934.16;;;14.96;100.00
69198;BME280;56311;50.298;8.514;2022-10-16T10:02:03;97930.28;;;14.98;100.00
69198;BME280;56311;50.298;8.514;2022-10-16T10:04:38;97935.25;;;14.95;100.00
69198;BME280;56311;50.298;8.514;2022-10-16T10:07:07;97930.19;;;15.03;100.00
69198;BME280;56311;50.298;8.514;2022-10-16T10:09:45;97934.44;;;15.26;100.00
69198;BME280;56311;50.298;8.514;2022-10-16T10:12:20;97931.78;;;15.44;100.00
69198;BME280;56311;50.298;8.514;2022-10-16T10:14:55;97918.69;;;15.64;100.00
69198;BME280;56311;50.298;8.514;2022-10-16T10:17:24;97915.38;;;15.84;100.00
69198;BME280;56311;50.298;8.514;2022-10-16T10:19:54;97919.28;;;16.10;100.00
69198;BME280;56311;50.298;8.514;2022-10-16T10:22:24;97921.38;;;16.13;100.00
69198;BME280;56311;50.298;8.514;2022-10-16T10:25:15;97918.66;;;16.21;100.00
69198;BME280;56311;50.298;8.514;2022-10-16T10:27:51;97924.44;;;16.29;100.00
69198;BME280;56311;50.298;8.514;2022-10-16T10:30:26;97930.69;;;16.20;100.00
69198;BME280;56311;50.298;8.514;2022-10-16T10:33:12;97930.84;;;16.15;100.00
69198;BME280;56311;50.298;8.514;2022-10-16T10:35:47;97919.91;;;16.33;100.00
69198;BME280;56311;50.298;8.514;2022-10-16T10:38:27;97922.03;;;16.53;100.00
69198;BME280;56311;50.298;8.514;2022-10-16T10:41:09;97918.16;;;16.63;100.00
69198;BME280;56311;50.298;8.514;2022-10-16T10:43:54;97918.63;;;16.74;100.00
69198;BME280;56311;50.298;8.514;2022-10-16T10:46:32;97919.56;;;16.78;100.00
69198;BME280;56311;50.298;8.514;2022-10-16T10:49:14;97911.38;;;16.96;100.00
69198;BME280;56311;50.298;8.514;2022-10-16T10:51:49;97918.78;;;17.64;100.00
69198;BME280;56311;50.298;8.514;2022-10-16T10:54:25;97901.66;;;18.06;100.00
69198;BME280;56311;50.298;8.514;2022-10-16T10:56:58;97908.66;;;18.16;100.00
69198;BME280;56311;50.298;8.514;2022-10-16T10:59:45;97911.69;;;17.93;100.00
69198;BME280;56311;50.298;8.514;2022-10-16T11:02:23;97900.84;;;18.26;100.00
69198;BME280;56311;50.298;8.514;2022-10-16T11:05:18;97901.91;;;18.68;100.00
69198;BME280;56311;50.298;8.514;2022-10-16T11:07:50;97897.06;;;18.86;100.00
69198;BME280;56311;50.298;8.514;2022-10-16T11:10:21;97891.44;;;19.16;98.26
69198;BME280;56311;50.298;8.514;2022-10-16T11:12:52;97898.88;;;19.40;95.60
69198;BME280;56311;50.298;8.514;2022-10-16T11:15:25;97899.91;;;19.23;94.67
69198;BME280;56311;50.298;8.514;2022-10-16T11:17:58;97903.41;;;20.10;93.56
69198;BME280;56311;50.298;8.514;2022-10-16T11:20:32;97905.00;;;20.11;88.46
69198;BME280;56311;50.298;8.514;2022-10-16T11:23:06;97908.56;;;19.62;88.14
69198;BME280;56311;50.298;8.514;2022-10-16T11:25:33;97904.44;;;19.19;89.73
69198;BME280;56311;50.298;8.514;2022-10-16T11:28:03;97904.63;;;18.89;90.96
69198;BME280;56311;50.298;8.514;2022-10-16T11:30:40;97903.06;;;19.00;92.05
69198;BME280;56311;50.298;8.514;2022-10-16T11:33:24;97901.22;;;18.92;93.38
69198;BME280;56311;50.298;8.514;2022-10-16T11:35:56;97897.50;;;19.46;89.14
69198;BME280;56311;50.298;8.514;2022-10-16T11:38:30;97905.50;;;19.88;88.24
69198;BME280;56311;50.298;8.514;2022-10-16T11:41:00;97901.28;;;19.29;86.79
69198;BME280;56311;50.298;8.514;2022-10-16T11:43:34;97895.66;;;19.25;89.42
69198;BME280;56311;50.298;8.514;2022-10-16T11:46:08;97893.59;;;18.76;92.67
69198;BME280;56311;50.298;8.514;2022-10-16T11:48:43;97894.19;;;18.49;96.60
69198;BME280;56311;50.298;8.514;2022-10-16T11:51:16;97894.53;;;18.47;96.58
69198;BME280;56311;50.298;8.514;2022-10-16T11:53:50;97901.56;;;19.03;92.10
69198;BME280;56311;50.298;8.514;2022-10-16T11:56:20;97895.66;;;19.50;89.26
69198;BME280;56311;50.298;8.514;2022-10-16T11:58:54;97892.00;;;19.46;89.16
69198;BME280;56311;50.298;8.514;2022-10-16T12:01:29;97891.78;;;19.27;88.87
69198;BME280;56311;50.298;8.514;2022-10-16T12:04:11;97904.09;;;19.08;90.80
69198;BME280;56311;50.298;8.514;2022-10-16T12:06:43;97911.66;;;18.77;92.07
69198;BME280;56311;50.298;8.514;2022-10-16T12:09:15;97901.19;;;18.58;92.96
69198;BME280;56311;50.298;8.514;2022-10-16T12:11:46;97901.31;;;18.62;93.41
69198;BME280;56311;50.298;8.514;2022-10-16T12:14:37;97903.28;;;18.40;95.79
69198;BME280;56311;50.298;8.514;2022-10-16T12:17:33;97909.38;;;18.46;96.39
69198;BME280;56311;50.298;8.514;2022-10-16T12:20:20;97907.66;;;18.75;95.21
69198;BME280;56311;50.298;8.514;2022-10-16T12:22:49;97906.50;;;19.09;92.97
69198;BME280;56311;50.298;8.514;2022-10-16T12:25:20;97907.44;;;19.63;86.93
69198;BME280;56311;50.298;8.514;2022-10-16T12:27:54;97905.59;;;19.55;87.94
69198;BME280;56311;50.298;8.514;2022-10-16T12:30:22;97906.75;;;19.17;90.17
69198;BME280;56311;50.298;8.514;2022-10-16T12:32:53;97890.06;;;19.47;89.32
69198;BME280;56311;50.298;8.514;2022-10-16T12:35:25;97897.75;;;20.19;86.40
69198;BME280;56311;50.298;8.514;2022-10-16T12:37:53;97906.06;;;20.63;83.77
69198;BME280;56311;50.298;8.514;2022-10-16T12:40:27;97902.22;;;20.52;82.58
69198;BME280;56311;50.298;8.514;2022-10-16T12:42:55;97915.47;;;21.07;78.37
69198;BME280;56311;50.298;8.514;2022-10-16T12:45:27;97917.25;;;20.99;80.80
69198;BME280;56311;50.298;8.514;2022-10-16T12:47:55;97918.38;;;20.54;81.52
69198;BME280;56311;50.298;8.514;2022-10-16T12:50:30;97921.47;;;20.11;82.89
69198;BME280;56311;50.298;8.514;2022-10-16T12:52:58;97928.72;;;19.91;86.23
69198;BME280;56311;50.298;8.514;2022-10-16T12:55:26;97933.09;;;20.33;83.48
69198;BME280;56311;50.298;8.514;2022-10-16T12:58:09;97928.69;;;19.79;83.38
69198;BME280;56311;50.298;8.514;2022-10-16T13:00:44;97938.19;;;19.94;83.40
69198;BME280;56311;50.298;8.514;2022-10-16T13:03:43;97943.81;;;20.10;82.55
69198;BME280;56311;50.298;8.514;2022-10-16T13:06:25;97942.34;;;20.00;82.23
69198;BME280;56311;50.298;8.514;2022-10-16T13:09:22;97947.06;;;20.28;81.78
69198;BME280;56311;50.298;8.514;2022-10-16T13:12:00;97946.66;;;20.01;80.82